KOPL/OPL METAR and TAF weather

Enter ICAO airport designator
Station Type Date Time Source
KOPL METAR 2020/01/23 21:15 UTC NOAA

KOPL 232115Z AUTO 29008KT 10SM SCT022 OVC034 18/14 A2989 RMK AO2 T01830140


Station Type Date Time Source
KOPL Decoded METAR 2020/01/23 21:15 UTC NOAA

Station name not available
Jan 23, 2020 - 04:15 PM EST / 2020.01.23 2115 UTC
Wind: from the WNW (290 degrees) at 9 MPH (8 KT):0
Visibility: 10 mile(s):0
Sky conditions: overcast
Temperature: 64.9 F (18.3 C)
Dew Point: 57.2 F (14.0 C)
Relative Humidity: 75%
Pressure (altimeter): 29.89 in. Hg (1012 hPa)
ob: KOPL 232115Z AUTO 29008KT 10SM SCT022 OVC034 18/14 A2989 RMK AO2 T01830140
cycle: 21

Station Type Date Time Source
KOPL TAF UTC NOAA

Error!

Example: see airport list